sensor_id;sensor_type;location;lat;lon;timestamp;temperature;humidity
18147;DHT22;9199;48.832;9.182;2024-01-16T00:01:56;1.00;99.90
18147;DHT22;9199;48.832;9.182;2024-01-16T00:04:24;0.90;99.90
18147;DHT22;9199;48.832;9.182;2024-01-16T00:06:52;0.90;99.90
18147;DHT22;9199;48.832;9.182;2024-01-16T00:09:18;0.90;99.90
18147;DHT22;9199;48.832;9.182;2024-01-16T00:11:45;0.90;99.90
18147;DHT22;9199;48.832;9.182;2024-01-16T00:14:12;0.80;99.90
18147;DHT22;9199;48.832;9.182;2024-01-16T00:16:42;0.90;99.90
18147;DHT22;9199;48.832;9.182;2024-01-16T00:19:11;0.90;99.90
18147;DHT22;9199;48.832;9.182;2024-01-16T00:21:42;0.90;99.90
18147;DHT22;9199;48.832;9.182;2024-01-16T00:24:11;0.90;99.90
18147;DHT22;9199;48.832;9.182;2024-01-16T00:26:37;0.80;99.90
18147;DHT22;9199;48.832;9.182;2024-01-16T00:29:04;0.80;99.90
18147;DHT22;9199;48.832;9.182;2024-01-16T00:31:31;0.80;99.90
18147;DHT22;9199;48.832;9.182;2024-01-16T00:33:58;0.80;99.90
18147;DHT22;9199;48.832;9.182;2024-01-16T00:36:24;0.70;99.90
18147;DHT22;9199;48.832;9.182;2024-01-16T00:38:52;0.70;99.90
18147;DHT22;9199;48.832;9.182;2024-01-16T00:41:19;0.70;99.90
18147;DHT22;9199;48.832;9.182;2024-01-16T00:43:46;0.70;99.90
18147;DHT22;9199;48.832;9.182;2024-01-16T00:46:13;0.70;99.90
18147;DHT22;9199;48.832;9.182;2024-01-16T00:48:40;0.70;99.90
18147;DHT22;9199;48.832;9.182;2024-01-16T00:51:07;0.70;99.90
18147;DHT22;9199;48.832;9.182;2024-01-16T00:53:39;0.70;99.90
18147;DHT22;9199;48.832;9.182;2024-01-16T00:56:08;0.70;99.90
18147;DHT22;9199;48.832;9.182;2024-01-16T00:58:34;0.70;99.90
18147;DHT22;9199;48.832;9.182;2024-01-16T01:01:01;0.70;99.90
18147;DHT22;9199;48.832;9.182;2024-01-16T01:03:28;0.70;99.90
18147;DHT22;9199;48.832;9.182;2024-01-16T01:05:55;0.70;99.90
18147;DHT22;9199;48.832;9.182;2024-01-16T01:08:22;0.70;99.90
18147;DHT22;9199;48.832;9.182;2024-01-16T01:10:49;0.70;99.90
18147;DHT22;9199;48.832;9.182;2024-01-16T01:13:17;0.70;99.90
18147;DHT22;9199;48.832;9.182;2024-01-16T01:15:44;0.60;99.90
18147;DHT22;9199;48.832;9.182;2024-01-16T01:18:11;0.60;99.90
18147;DHT22;9199;48.832;9.182;2024-01-16T01:20:37;0.70;99.90
18147;DHT22;9199;48.832;9.182;2024-01-16T01:23:04;0.70;99.90
18147;DHT22;9199;48.832;9.182;2024-01-16T01:25:31;0.70;99.90
18147;DHT22;9199;48.832;9.182;2024-01-16T01:27:58;0.70;99.90
18147;DHT22;9199;48.832;9.182;2024-01-16T01:30:26;0.70;99.90
18147;DHT22;9199;48.832;9.182;2024-01-16T01:32:53;0.70;99.90
18147;DHT22;9199;48.832;9.182;2024-01-16T01:35:19;0.60;99.90
18147;DHT22;9199;48.832;9.182;2024-01-16T01:37:46;0.60;99.90
18147;DHT22;9199;48.832;9.182;2024-01-16T01:40:13;0.60;99.90
18147;DHT22;9199;48.832;9.182;2024-01-16T01:42:41;0.60;99.90
18147;DHT22;9199;48.832;9.182;2024-01-16T01:45:09;0.50;99.90
18147;DHT22;9199;48.832;9.182;2024-01-16T01:47:37;0.50;99.90
18147;DHT22;9199;48.832;9.182;2024-01-16T01:50:06;0.50;99.90
18147;DHT22;9199;48.832;9.182;2024-01-16T01:52:34;0.50;99.90
18147;DHT22;9199;48.832;9.182;2024-01-16T01:55:02;0.50;99.90
18147;DHT22;9199;48.832;9.182;2024-01-16T01:57:33;0.50;99.90
18147;DHT22;9199;48.832;9.182;2024-01-16T02:00:00;0.50;99.90
18147;DHT22;9199;48.832;9.182;2024-01-16T02:02:27;0.60;99.90
18147;DHT22;9199;48.832;9.182;2024-01-16T02:04:56;0.60;99.90
18147;DHT22;9199;48.832;9.182;2024-01-16T02:07:23;0.50;99.90
18147;DHT22;9199;48.832;9.182;2024-01-16T02:09:51;0.50;99.90
18147;DHT22;9199;48.832;9.182;2024-01-16T02:12:17;0.50;99.90
18147;DHT22;9199;48.832;9.182;2024-01-16T02:14:46;0.50;99.90
18147;DHT22;9199;48.832;9.182;2024-01-16T02:17:13;0.50;99.90
18147;DHT22;9199;48.832;9.182;2024-01-16T02:19:39;0.50;99.90
18147;DHT22;9199;48.832;9.182;2024-01-16T02:22:09;0.40;99.90
18147;DHT22;9199;48.832;9.182;2024-01-16T02:24:40;0.40;99.90
18147;DHT22;9199;48.832;9.182;2024-01-16T02:27:07;0.30;99.90
18147;DHT22;9199;48.832;9.182;2024-01-16T02:29:34;0.30;99.90
18147;DHT22;9199;48.832;9.182;2024-01-16T02:32:06;0.30;99.90
18147;DHT22;9199;48.832;9.182;2024-01-16T02:34:33;0.20;99.90
18147;DHT22;9199;48.832;9.182;2024-01-16T02:37:00;0.20;99.90
18147;DHT22;9199;48.832;9.182;2024-01-16T02:39:27;0.20;99.90
18147;DHT22;9199;48.832;9.182;2024-01-16T02:41:55;0.10;99.90
18147;DHT22;9199;48.832;9.182;2024-01-16T02:44:22;0.10;99.90
18147;DHT22;9199;48.832;9.182;2024-01-16T02:46:49;0.10;99.90
18147;DHT22;9199;48.832;9.182;2024-01-16T02:49:16;0.00;99.90
18147;DHT22;9199;48.832;9.182;2024-01-16T02:51:43;0.00;99.90
18147;DHT22;9199;48.832;9.182;2024-01-16T02:54:10;0.00;99.90
18147;DHT22;9199;48.832;9.182;2024-01-16T02:56:37;0.00;99.90
18147;DHT22;9199;48.832;9.182;2024-01-16T02:59:05;0.00;99.90
18147;DHT22;9199;48.832;9.182;2024-01-16T03:01:33;0.00;99.90
18147;DHT22;9199;48.832;9.182;2024-01-16T03:03:59;0.00;99.90
18147;DHT22;9199;48.832;9.182;2024-01-16T03:06:26;-0.10;99.90
18147;DHT22;9199;48.832;9.182;2024-01-16T03:08:54;-0.10;99.90
18147;DHT22;9199;48.832;9.182;2024-01-16T03:11:20;-0.10;99.90
18147;DHT22;9199;48.832;9.182;2024-01-16T03:13:47;-0.10;99.90
18147;DHT22;9199;48.832;9.182;2024-01-16T03:16:16;-0.10;99.90
18147;DHT22;9199;48.832;9.182;2024-01-16T03:18:43;-0.20;99.90
18147;DHT22;9199;48.832;9.182;2024-01-16T03:21:14;-0.20;99.90
18147;DHT22;9199;48.832;9.182;2024-01-16T03:23:40;-0.20;99.90
18147;DHT22;9199;48.832;9.182;2024-01-16T03:26:12;-0.20;99.90
18147;DHT22;9199;48.832;9.182;2024-01-16T03:28:39;-0.30;99.90
18147;DHT22;9199;48.832;9.182;2024-01-16T03:31:06;-0.30;99.90
18147;DHT22;9199;48.832;9.182;2024-01-16T03:33:34;-0.40;99.90
18147;DHT22;9199;48.832;9.182;2024-01-16T03:36:07;-0.40;99.90
18147;DHT22;9199;48.832;9.182;2024-01-16T03:38:33;-0.40;99.90
18147;DHT22;9199;48.832;9.182;2024-01-16T03:41:01;-0.40;99.90
18147;DHT22;9199;48.832;9.182;2024-01-16T03:43:29;-0.50;99.90
18147;DHT22;9199;48.832;9.182;2024-01-16T03:45:56;-0.50;99.90
18147;DHT22;9199;48.832;9.182;2024-01-16T03:48:23;-0.60;99.90
18147;DHT22;9199;48.832;9.182;2024-01-16T03:50:52;-0.60;99.90
18147;DHT22;9199;48.832;9.182;2024-01-16T03:53:20;-0.60;99.90
18147;DHT22;9199;48.832;9.182;2024-01-16T03:55:47;-0.60;99.90
18147;DHT22;9199;48.832;9.182;2024-01-16T03:58:15;-0.60;99.90
18147;DHT22;9199;48.832;9.182;2024-01-16T04:00:42;-0.60;99.90
18147;DHT22;9199;48.832;9.182;2024-01-16T04:03:09;-0.70;99.90
18147;DHT22;9199;48.832;9.182;2024-01-16T04:05:36;-0.60;99.90
18147;DHT22;9199;48.832;9.182;2024-01-16T04:08:05;-0.60;99.90
18147;DHT22;9199;48.832;9.182;2024-01-16T04:10:31;-0.70;99.90
18147;DHT22;9199;48.832;9.182;2024-01-16T04:13:00;-0.70;99.90
18147;DHT22;9199;48.832;9.182;2024-01-16T04:15:27;-0.70;99.90
18147;DHT22;9199;48.832;9.182;2024-01-16T04:17:56;-0.80;99.90
18147;DHT22;9199;48.832;9.182;2024-01-16T04:20:22;-0.80;99.90
18147;DHT22;9199;48.832;9.182;2024-01-16T04:22:49;-0.80;99.90
18147;DHT22;9199;48.832;9.182;2024-01-16T04:25:17;-0.80;99.90
18147;DHT22;9199;48.832;9.182;2024-01-16T04:27:44;-0.80;99.90
18147;DHT22;9199;48.832;9.182;2024-01-16T04:30:12;-0.90;99.90
18147;DHT22;9199;48.832;9.182;2024-01-16T04:32:39;-0.90;99.90
18147;DHT22;9199;48.832;9.182;2024-01-16T04:35:06;-0.90;99.90
18147;DHT22;9199;48.832;9.182;2024-01-16T04:37:33;-0.90;99.90
18147;DHT22;9199;48.832;9.182;2024-01-16T04:40:00;-0.90;99.90
18147;DHT22;9199;48.832;9.182;2024-01-16T04:42:28;-1.00;99.90
18147;DHT22;9199;48.832;9.182;2024-01-16T04:44:55;-1.10;99.90
18147;DHT22;9199;48.832;9.182;2024-01-16T04:47:22;-1.10;99.90
18147;DHT22;9199;48.832;9.182;2024-01-16T04:49:48;-1.10;99.90
18147;DHT22;9199;48.832;9.182;2024-01-16T04:52:15;-1.20;99.90
18147;DHT22;9199;48.832;9.182;2024-01-16T04:54:42;-1.10;99.90
18147;DHT22;9199;48.832;9.182;2024-01-16T04:57:11;-1.10;99.90
18147;DHT22;9199;48.832;9.182;2024-01-16T04:59:39;-1.10;99.90
18147;DHT22;9199;48.832;9.182;2024-01-16T05:02:07;-1.10;99.90
18147;DHT22;9199;48.832;9.182;2024-01-16T05:04:36;-1.10;99.90
18147;DHT22;9199;48.832;9.182;2024-01-16T05:07:03;-1.00;99.90
18147;DHT22;9199;48.832;9.182;2024-01-16T05:09:30;-1.00;99.90
18147;DHT22;9199;48.832;9.182;2024-01-16T05:11:57;-1.10;99.90
18147;DHT22;9199;48.832;9.182;2024-01-16T05:14:23;-1.10;99.90
18147;DHT22;9199;48.832;9.182;2024-01-16T05:16:52;-1.20;99.90
18147;DHT22;9199;48.832;9.182;2024-01-16T05:19:19;-1.20;99.90
18147;DHT22;9199;48.832;9.182;2024-01-16T05:21:45;-1.20;99.90
18147;DHT22;9199;48.832;9.182;2024-01-16T05:24:12;-1.30;99.90
18147;DHT22;9199;48.832;9.182;2024-01-16T05:26:39;-1.30;99.90
18147;DHT22;9199;48.832;9.182;2024-01-16T05:29:05;-1.30;99.90
18147;DHT22;9199;48.832;9.182;2024-01-16T05:31:32;-1.40;99.90
18147;DHT22;9199;48.832;9.182;2024-01-16T05:34:00;-1.40;99.90
18147;DHT22;9199;48.832;9.182;2024-01-16T05:36:27;-1.40;99.90
18147;DHT22;9199;48.832;9.182;2024-01-16T05:38:53;-1.40;99.90
18147;DHT22;9199;48.832;9.182;2024-01-16T05:41:20;-1.50;99.90
18147;DHT22;9199;48.832;9.182;2024-01-16T05:43:47;-1.40;99.90
18147;DHT22;9199;48.832;9.182;2024-01-16T05:46:14;-1.50;99.90
18147;DHT22;9199;48.832;9.182;2024-01-16T05:48:40;-1.50;99.90
18147;DHT22;9199;48.832;9.182;2024-01-16T05:51:08;-1.50;99.90
18147;DHT22;9199;48.832;9.182;2024-01-16T05:53:35;-1.60;99.90
18147;DHT22;9199;48.832;9.182;2024-01-16T05:56:02;-1.50;99.90
18147;DHT22;9199;48.832;9.182;2024-01-16T05:58:28;-1.50;99.90
18147;DHT22;9199;48.832;9.182;2024-01-16T06:00:54;-1.50;99.90
18147;DHT22;9199;48.832;9.182;2024-01-16T06:03:21;-1.50;99.90
18147;DHT22;9199;48.832;9.182;2024-01-16T06:05:48;-1.10;99.90
18147;DHT22;9199;48.832;9.182;2024-01-16T06:08:16;-0.20;99.90
18147;DHT22;9199;48.832;9.182;2024-01-16T06:10:43;-0.10;99.90
18147;DHT22;9199;48.832;9.182;2024-01-16T06:13:09;-0.20;99.90
18147;DHT22;9199;48.832;9.182;2024-01-16T06:15:36;-0.30;99.90
18147;DHT22;9199;48.832;9.182;2024-01-16T06:18:03;-0.50;99.90
18147;DHT22;9199;48.832;9.182;2024-01-16T06:20:30;-0.60;99.90
18147;DHT22;9199;48.832;9.182;2024-01-16T06:22:58;-0.70;99.90
18147;DHT22;9199;48.832;9.182;2024-01-16T06:25:26;-0.80;99.90
18147;DHT22;9199;48.832;9.182;2024-01-16T06:27:53;-0.80;99.90
18147;DHT22;9199;48.832;9.182;2024-01-16T06:30:19;-0.90;99.90
18147;DHT22;9199;48.832;9.182;2024-01-16T06:32:46;-0.90;99.90
18147;DHT22;9199;48.832;9.182;2024-01-16T06:35:15;-0.90;99.90
18147;DHT22;9199;48.832;9.182;2024-01-16T06:37:41;-0.90;99.90
18147;DHT22;9199;48.832;9.182;2024-01-16T06:40:09;-0.90;99.90
18147;DHT22;9199;48.832;9.182;2024-01-16T06:42:37;-0.90;99.90
18147;DHT22;9199;48.832;9.182;2024-01-16T06:45:05;-0.90;99.90
18147;DHT22;9199;48.832;9.182;2024-01-16T06:47:32;-1.00;99.90
18147;DHT22;9199;48.832;9.182;2024-01-16T06:49:59;-1.00;99.90
18147;DHT22;9199;48.832;9.182;2024-01-16T06:52:25;-1.00;99.90
18147;DHT22;9199;48.832;9.182;2024-01-16T06:54:52;-1.10;99.90
18147;DHT22;9199;48.832;9.182;2024-01-16T06:57:19;-1.10;99.90
18147;DHT22;9199;48.832;9.182;2024-01-16T06:59:47;-1.00;99.90
18147;DHT22;9199;48.832;9.182;2024-01-16T07:02:13;-1.10;99.90
18147;DHT22;9199;48.832;9.182;2024-01-16T07:04:40;-1.10;99.90
18147;DHT22;9199;48.832;9.182;2024-01-16T07:07:07;-1.10;99.90
18147;DHT22;9199;48.832;9.182;2024-01-16T07:09:34;-1.00;99.90
18147;DHT22;9199;48.832;9.182;2024-01-16T07:12:00;-1.00;99.90
18147;DHT22;9199;48.832;9.182;2024-01-16T07:14:29;-1.00;99.90
18147;DHT22;9199;48.832;9.182;2024-01-16T07:16:57;-1.00;99.90
18147;DHT22;9199;48.832;9.182;2024-01-16T07:19:24;-1.00;99.90
18147;DHT22;9199;48.832;9.182;2024-01-16T07:21:51;-1.10;99.90
18147;DHT22;9199;48.832;9.182;2024-01-16T07:24:17;-1.10;99.90
18147;DHT22;9199;48.832;9.182;2024-01-16T07:26:44;-1.10;99.90
18147;DHT22;9199;48.832;9.182;2024-01-16T07:29:11;-1.10;99.90
18147;DHT22;9199;48.832;9.182;2024-01-16T07:31:37;-1.10;99.90
18147;DHT22;9199;48.832;9.182;2024-01-16T07:34:05;-1.10;99.90
18147;DHT22;9199;48.832;9.182;2024-01-16T07:36:32;-1.10;99.90
18147;DHT22;9199;48.832;9.182;2024-01-16T07:38:59;-1.10;99.90
18147;DHT22;9199;48.832;9.182;2024-01-16T07:41:26;-1.10;99.90
18147;DHT22;9199;48.832;9.182;2024-01-16T07:43:52;-1.00;99.90
18147;DHT22;9199;48.832;9.182;2024-01-16T07:46:19;-1.00;99.90
18147;DHT22;9199;48.832;9.182;2024-01-16T07:48:46;-1.00;99.90
18147;DHT22;9199;48.832;9.182;2024-01-16T07:51:14;-0.90;99.90
18147;DHT22;9199;48.832;9.182;2024-01-16T07:53:40;-0.90;99.90
18147;DHT22;9199;48.832;9.182;2024-01-16T07:56:07;-0.90;99.90
18147;DHT22;9199;48.832;9.182;2024-01-16T07:58:34;-0.80;99.90
18147;DHT22;9199;48.832;9.182;2024-01-16T08:01:02;-0.80;99.90
18147;DHT22;9199;48.832;9.182;2024-01-16T08:03:29;-0.70;99.90
18147;DHT22;9199;48.832;9.182;2024-01-16T08:05:56;-0.70;99.90
18147;DHT22;9199;48.832;9.182;2024-01-16T08:08:24;-0.60;99.90
18147;DHT22;9199;48.832;9.182;2024-01-16T08:10:51;-0.60;99.90
18147;DHT22;9199;48.832;9.182;2024-01-16T08:13:17;-0.60;99.90
18147;DHT22;9199;48.832;9.182;2024-01-16T08:15:44;-0.60;99.90
18147;DHT22;9199;48.832;9.182;2024-01-16T08:18:11;-0.50;99.90
18147;DHT22;9199;48.832;9.182;2024-01-16T08:20:37;-0.40;99.90
18147;DHT22;9199;48.832;9.182;2024-01-16T08:23:04;-0.40;99.90
18147;DHT22;9199;48.832;9.182;2024-01-16T08:25:32;-0.30;99.90
18147;DHT22;9199;48.832;9.182;2024-01-16T08:27:58;-0.20;99.90
18147;DHT22;9199;48.832;9.182;2024-01-16T08:30:26;-0.10;99.90
18147;DHT22;9199;48.832;9.182;2024-01-16T08:32:53;-0.10;99.90
18147;DHT22;9199;48.832;9.182;2024-01-16T08:35:19;-0.10;99.90
18147;DHT22;9199;48.832;9.182;2024-01-16T08:37:47;0.00;99.90
18147;DHT22;9199;48.832;9.182;2024-01-16T08:40:14;0.00;99.90
18147;DHT22;9199;48.832;9.182;2024-01-16T08:42:42;0.10;99.90
18147;DHT22;9199;48.832;9.182;2024-01-16T08:45:09;0.10;99.90
18147;DHT22;9199;48.832;9.182;2024-01-16T08:47:37;0.10;99.90
18147;DHT22;9199;48.832;9.182;2024-01-16T08:50:04;0.20;99.90
18147;DHT22;9199;48.832;9.182;2024-01-16T08:52:31;0.30;99.90
18147;DHT22;9199;48.832;9.182;2024-01-16T08:54:58;0.30;99.90
18147;DHT22;9199;48.832;9.182;2024-01-16T08:57:25;0.40;99.90
18147;DHT22;9199;48.832;9.182;2024-01-16T08:59:53;0.50;99.90
18147;DHT22;9199;48.832;9.182;2024-01-16T09:02:20;0.50;99.90
18147;DHT22;9199;48.832;9.182;2024-01-16T09:04:47;0.70;99.90
18147;DHT22;9199;48.832;9.182;2024-01-16T09:07:15;0.80;99.90
18147;DHT22;9199;48.832;9.182;2024-01-16T09:09:42;0.90;99.90
18147;DHT22;9199;48.832;9.182;2024-01-16T09:12:10;1.10;99.90
18147;DHT22;9199;48.832;9.182;2024-01-16T09:14:36;1.20;99.90
18147;DHT22;9199;48.832;9.182;2024-01-16T09:17:04;1.30;99.90
18147;DHT22;9199;48.832;9.182;2024-01-16T09:19:31;1.50;99.90
18147;DHT22;9199;48.832;9.182;2024-01-16T09:21:58;1.70;99.90
18147;DHT22;9199;48.832;9.182;2024-01-16T09:24:25;1.80;99.90
18147;DHT22;9199;48.832;9.182;2024-01-16T09:26:51;1.80;99.90
18147;DHT22;9199;48.832;9.182;2024-01-16T09:29:18;1.80;99.90
18147;DHT22;9199;48.832;9.182;2024-01-16T09:31:46;1.80;99.90
18147;DHT22;9199;48.832;9.182;2024-01-16T09:34:14;1.80;99.90
18147;DHT22;9199;48.832;9.182;2024-01-16T09:36:40;1.80;99.90
18147;DHT22;9199;48.832;9.182;2024-01-16T09:39:07;1.90;99.90
18147;DHT22;9199;48.832;9.182;2024-01-16T09:41:36;2.00;99.90
18147;DHT22;9199;48.832;9.182;2024-01-16T09:44:03;2.20;99.90
18147;DHT22;9199;48.832;9.182;2024-01-16T09:46:31;2.30;99.90
18147;DHT22;9199;48.832;9.182;2024-01-16T09:48:59;2.40;99.90
18147;DHT22;9199;48.832;9.182;2024-01-16T09:51:28;2.50;99.90
18147;DHT22;9199;48.832;9.182;2024-01-16T09:53:55;2.80;99.30
18147;DHT22;9199;48.832;9.182;2024-01-16T09:56:25;2.90;99.00
18147;DHT22;9199;48.832;9.182;2024-01-16T09:58:56;3.10;99.20
18147;DHT22;9199;48.832;9.182;2024-01-16T10:01:27;3.20;99.00
18147;DHT22;9199;48.832;9.182;2024-01-16T10:03:53;3.40;99.30
18147;DHT22;9199;48.832;9.182;2024-01-16T10:06:20;3.40;98.60
18147;DHT22;9199;48.832;9.182;2024-01-16T10:08:49;3.40;97.60
18147;DHT22;9199;48.832;9.182;2024-01-16T10:11:16;3.50;97.50
18147;DHT22;9199;48.832;9.182;2024-01-16T10:13:44;3.60;96.70
18147;DHT22;9199;48.832;9.182;2024-01-16T10:16:11;3.70;96.90
18147;DHT22;9199;48.832;9.182;2024-01-16T10:18:38;3.80;97.60
18147;DHT22;9199;48.832;9.182;2024-01-16T10:21:05;3.90;97.90
18147;DHT22;9199;48.832;9.182;2024-01-16T10:23:37;4.20;96.50
18147;DHT22;9199;48.832;9.182;2024-01-16T10:26:08;4.30;95.90
18147;DHT22;9199;48.832;9.182;2024-01-16T10:28:36;4.40;95.60
18147;DHT22;9199;48.832;9.182;2024-01-16T10:31:03;4.10;95.30
18147;DHT22;9199;48.832;9.182;2024-01-16T10:33:31;4.00;95.40
18147;DHT22;9199;48.832;9.182;2024-01-16T10:36:11;4.00;95.30
18147;DHT22;9199;48.832;9.182;2024-01-16T10:38:38;4.00;95.50
18147;DHT22;9199;48.832;9.182;2024-01-16T10:41:09;4.30;95.40
18147;DHT22;9199;48.832;9.182;2024-01-16T10:43:37;4.50;95.90
18147;DHT22;9199;48.832;9.182;2024-01-16T10:46:08;4.70;95.00
18147;DHT22;9199;48.832;9.182;2024-01-16T10:48:37;4.90;94.40
18147;DHT22;9199;48.832;9.182;2024-01-16T10:51:06;5.40;94.10
18147;DHT22;9199;48.832;9.182;2024-01-16T10:53:33;6.30;93.60
18147;DHT22;9199;48.832;9.182;2024-01-16T10:56:01;7.40;91.90
18147;DHT22;9199;48.832;9.182;2024-01-16T10:58:30;8.70;90.50
18147;DHT22;9199;48.832;9.182;2024-01-16T11:01:02;9.90;84.80
18147;DHT22;9199;48.832;9.182;2024-01-16T11:03:34;10.50;79.00
18147;DHT22;9199;48.832;9.182;2024-01-16T11:06:02;10.20;76.50
18147;DHT22;9199;48.832;9.182;2024-01-16T11:08:32;9.90;76.10
18147;DHT22;9199;48.832;9.182;2024-01-16T11:10:59;9.20;78.00
18147;DHT22;9199;48.832;9.182;2024-01-16T11:13:26;8.10;79.70
18147;DHT22;9199;48.832;9.182;2024-01-16T11:15:56;7.30;81.90
18147;DHT22;9199;48.832;9.182;2024-01-16T11:18:24;6.60;84.10
18147;DHT22;9199;48.832;9.182;2024-01-16T11:20:53;6.00;85.70
18147;DHT22;9199;48.832;9.182;2024-01-16T11:23:21;5.80;87.50
18147;DHT22;9199;48.832;9.182;2024-01-16T11:25:47;5.70;88.50
18147;DHT22;9199;48.832;9.182;2024-01-16T11:28:14;5.40;88.30
18147;DHT22;9199;48.832;9.182;2024-01-16T11:30:43;5.30;88.50
18147;DHT22;9199;48.832;9.182;2024-01-16T11:33:44;5.40;89.00
18147;DHT22;9199;48.832;9.182;2024-01-16T11:36:42;5.50;88.00
18147;DHT22;9199;48.832;9.182;2024-01-16T11:39:10;5.30;87.00
18147;DHT22;9199;48.832;9.182;2024-01-16T11:41:53;5.00;89.60
18147;DHT22;9199;48.832;9.182;2024-01-16T11:44:41;4.70;90.20
18147;DHT22;9199;48.832;9.182;2024-01-16T11:47:07;4.70;88.80
18147;DHT22;9199;48.832;9.182;2024-01-16T11:49:36;4.80;89.00
18147;DHT22;9199;48.832;9.182;2024-01-16T11:52:03;4.70;89.20
18147;DHT22;9199;48.832;9.182;2024-01-16T11:54:30;4.70;88.30
18147;DHT22;9199;48.832;9.182;2024-01-16T11:57:21;4.70;87.00
18147;DHT22;9199;48.832;9.182;2024-01-16T11:59:58;4.70;88.20
18147;DHT22;9199;48.832;9.182;2024-01-16T12:02:29;4.80;88.50
18147;DHT22;9199;48.832;9.182;2024-01-16T12:04:57;4.80;87.20
18147;DHT22;9199;48.832;9.182;2024-01-16T12:07:29;5.00;86.60
18147;DHT22;9199;48.832;9.182;2024-01-16T12:09:59;5.00;85.30
18147;DHT22;9199;48.832;9.182;2024-01-16T12:12:26;5.00;86.50
18147;DHT22;9199;48.832;9.182;2024-01-16T12:14:53;5.00;84.80
18147;DHT22;9199;48.832;9.182;2024-01-16T12:17:20;5.00;84.70
18147;DHT22;9199;48.832;9.182;2024-01-16T12:19:46;4.80;85.50
18147;DHT22;9199;48.832;9.182;2024-01-16T12:22:16;4.80;85.60
18147;DHT22;9199;48.832;9.182;2024-01-16T12:24:44;4.80;85.50
18147;DHT22;9199;48.832;9.182;2024-01-16T12:27:12;4.60;85.70
18147;DHT22;9199;48.832;9.182;2024-01-16T12:29:39;4.70;86.40
18147;DHT22;9199;48.832;9.182;2024-01-16T12:32:08;4.90;86.80
18147;DHT22;9199;48.832;9.182;2024-01-16T12:34:38;5.10;86.10
18147;DHT22;9199;48.832;9.182;2024-01-16T12:37:09;5.40;84.60
18147;DHT22;9199;48.832;9.182;2024-01-16T12:39:37;5.80;82.00
18147;DHT22;9199;48.832;9.182;2024-01-16T12:42:05;6.40;81.40
18147;DHT22;9199;48.832;9.182;2024-01-16T12:44:32;7.50;78.90
18147;DHT22;9199;48.832;9.182;2024-01-16T12:46:58;9.00;74.70
18147;DHT22;9199;48.832;9.182;2024-01-16T12:49:27;10.30;70.50
18147;DHT22;9199;48.832;9.182;2024-01-16T12:52:18;11.00;67.70
18147;DHT22;9199;48.832;9.182;2024-01-16T12:54:47;11.90;65.90
18147;DHT22;9199;48.832;9.182;2024-01-16T12:57:18;13.00;61.10
18147;DHT22;9199;48.832;9.182;2024-01-16T12:59:46;13.60;54.60
18147;DHT22;9199;48.832;9.182;2024-01-16T13:02:20;13.10;52.20
18147;DHT22;9199;48.832;9.182;2024-01-16T13:04:47;12.70;51.70
18147;DHT22;9199;48.832;9.182;2024-01-16T13:07:16;12.40;51.60
18147;DHT22;9199;48.832;9.182;2024-01-16T13:09:43;11.80;52.40
18147;DHT22;9199;48.832;9.182;2024-01-16T13:12:19;11.80;52.30
18147;DHT22;9199;48.832;9.182;2024-01-16T13:14:46;12.10;51.50
18147;DHT22;9199;48.832;9.182;2024-01-16T13:17:12;12.00;51.60
18147;DHT22;9199;48.832;9.182;2024-01-16T13:19:40;12.10;51.00
18147;DHT22;9199;48.832;9.182;2024-01-16T13:22:07;12.40;50.50
18147;DHT22;9199;48.832;9.182;2024-01-16T13:24:34;12.80;48.90
18147;DHT22;9199;48.832;9.182;2024-01-16T13:27:01;12.70;49.30
18147;DHT22;9199;48.832;9.182;2024-01-16T13:29:31;12.80;49.00
18147;DHT22;9199;48.832;9.182;2024-01-16T13:32:01;13.10;48.50
18147;DHT22;9199;48.832;9.182;2024-01-16T13:34:27;13.50;48.20
18147;DHT22;9199;48.832;9.182;2024-01-16T13:36:56;13.60;47.50
18147;DHT22;9199;48.832;9.182;2024-01-16T13:39:25;13.40;47.20
18147;DHT22;9199;48.832;9.182;2024-01-16T13:41:52;12.80;47.80
18147;DHT22;9199;48.832;9.182;2024-01-16T13:44:19;12.40;48.30
18147;DHT22;9199;48.832;9.182;2024-01-16T13:46:47;12.40;47.80
18147;DHT22;9199;48.832;9.182;2024-01-16T13:49:13;12.30;48.10
18147;DHT22;9199;48.832;9.182;2024-01-16T13:51:43;11.90;48.80
18147;DHT22;9199;48.832;9.182;2024-01-16T13:54:10;11.60;49.40
18147;DHT22;9199;48.832;9.182;2024-01-16T13:56:37;11.70;48.60
18147;DHT22;9199;48.832;9.182;2024-01-16T13:59:04;12.10;49.00
18147;DHT22;9199;48.832;9.182;2024-01-16T14:01:31;12.40;48.30
18147;DHT22;9199;48.832;9.182;2024-01-16T14:04:00;12.40;48.30
18147;DHT22;9199;48.832;9.182;2024-01-16T14:06:26;12.40;47.90
18147;DHT22;9199;48.832;9.182;2024-01-16T14:08:53;11.90;48.50
18147;DHT22;9199;48.832;9.182;2024-01-16T14:11:20;11.30;49.00
18147;DHT22;9199;48.832;9.182;2024-01-16T14:13:46;10.70;50.00
18147;DHT22;9199;48.832;9.182;2024-01-16T14:16:13;10.20;51.10
18147;DHT22;9199;48.832;9.182;2024-01-16T14:18:40;9.30;54.30
18147;DHT22;9199;48.832;9.182;2024-01-16T14:21:09;8.10;57.70
18147;DHT22;9199;48.832;9.182;2024-01-16T14:23:36;7.00;60.30
18147;DHT22;9199;48.832;9.182;2024-01-16T14:26:03;6.40;62.40
18147;DHT22;9199;48.832;9.182;2024-01-16T14:28:30;5.60;64.90
18147;DHT22;9199;48.832;9.182;2024-01-16T14:30:59;5.00;68.20
18147;DHT22;9199;48.832;9.182;2024-01-16T14:33:25;4.50;69.10
18147;DHT22;9199;48.832;9.182;2024-01-16T14:35:52;4.20;70.30
18147;DHT22;9199;48.832;9.182;2024-01-16T14:38:21;4.10;71.70
18147;DHT22;9199;48.832;9.182;2024-01-16T14:40:48;3.90;72.80
18147;DHT22;9199;48.832;9.182;2024-01-16T14:43:17;3.80;74.00
18147;DHT22;9199;48.832;9.182;2024-01-16T14:45:43;3.70;74.70
18147;DHT22;9199;48.832;9.182;2024-01-16T14:48:11;3.60;76.00
18147;DHT22;9199;48.832;9.182;2024-01-16T14:50:38;3.50;76.80
18147;DHT22;9199;48.832;9.182;2024-01-16T14:53:04;3.50;77.10
18147;DHT22;9199;48.832;9.182;2024-01-16T14:55:32;3.40;77.60
18147;DHT22;9199;48.832;9.182;2024-01-16T14:57:59;3.30;78.60
18147;DHT22;9199;48.832;9.182;2024-01-16T15:00:27;3.10;79.20
18147;DHT22;9199;48.832;9.182;2024-01-16T15:02:54;3.00;80.40
18147;DHT22;9199;48.832;9.182;2024-01-16T15:05:22;2.90;80.50
18147;DHT22;9199;48.832;9.182;2024-01-16T15:07:49;2.90;81.90
18147;DHT22;9199;48.832;9.182;2024-01-16T15:10:17;2.80;80.90
18147;DHT22;9199;48.832;9.182;2024-01-16T15:12:46;2.80;81.80
18147;DHT22;9199;48.832;9.182;2024-01-16T15:15:14;2.80;83.00
18147;DHT22;9199;48.832;9.182;2024-01-16T15:17:43;2.70;82.30
18147;DHT22;9199;48.832;9.182;2024-01-16T15:20:10;2.70;83.20
18147;DHT22;9199;48.832;9.182;2024-01-16T15:22:37;2.60;83.70
18147;DHT22;9199;48.832;9.182;2024-01-16T15:25:05;2.50;84.20
18147;DHT22;9199;48.832;9.182;2024-01-16T15:27:32;2.50;84.90
18147;DHT22;9199;48.832;9.182;2024-01-16T15:30:01;2.40;85.30
18147;DHT22;9199;48.832;9.182;2024-01-16T15:32:29;2.30;85.40
18147;DHT22;9199;48.832;9.182;2024-01-16T15:34:56;2.30;86.00
18147;DHT22;9199;48.832;9.182;2024-01-16T15:37:22;2.20;85.90
18147;DHT22;9199;48.832;9.182;2024-01-16T15:39:49;2.20;86.80
18147;DHT22;9199;48.832;9.182;2024-01-16T15:42:16;2.10;87.00
18147;DHT22;9199;48.832;9.182;2024-01-16T15:44:42;2.00;87.70
18147;DHT22;9199;48.832;9.182;2024-01-16T15:47:11;2.00;89.20
18147;DHT22;9199;48.832;9.182;2024-01-16T15:49:37;1.80;89.70
18147;DHT22;9199;48.832;9.182;2024-01-16T15:52:05;1.80;90.30
18147;DHT22;9199;48.832;9.182;2024-01-16T15:54:32;1.70;90.80
18147;DHT22;9199;48.832;9.182;2024-01-16T15:56:58;1.60;90.70
18147;DHT22;9199;48.832;9.182;2024-01-16T15:59:25;1.50;91.10